CDG weather

Charles de Gaulle International Airport
Paris, Île-de-France, France

Public forecast

Using degrees Celsius for public forecast. Weather courtesy of forecast.io.

Current aviation weather report (METAR) for Charles de Gaulle International Airport

Retrieved 2020/04/05 00:30 UTC (2 minutes ago):

LFPG 050030Z AUTO 11009KT CAVOK 10/01 Q1019 NOSIG

Aviation forecast (TAF) for Charles de Gaulle International Airport

Retrieved 2020-04-05 00:46 UTC (0 seconds ago):

TAF LFPG 042300Z 0500/0606 11008KT CAVOK TX21/0515Z TN05/0506Z BECMG 0604/0606 18010KT